Time;durP1;ratioP1;P1;durP2;ratioP2;P2;SDS_P1;SDS_P2;PMS_P1;PMS_P2;Temp;Humidity;BMP_temperature;BMP_pressure;BME280_temperature;BME280_humidity;BME280_pressure;Samples;Min_cycle;Max_cycle;Signal;HPM_P1;HPM_P2
2022/12/19 00:01:17;;;;;;;47.58;19.38;;;-0.30;99.90;;;;;;4958172;28;20030;-61
2022/12/19 00:03:48;;;;;;;44.27;17.40;;;-0.30;99.90;;;;;;4956803;28;20026;-62
2022/12/19 00:06:15;;;;;;;45.93;19.00;;;-0.30;99.90;;;;;;4956365;28;20023;-62
2022/12/19 00:08:43;;;;;;;43.93;17.63;;;-0.20;99.90;;;;;;4964231;28;20078;-62
2022/12/19 00:11:10;;;;;;;42.90;17.60;;;-0.20;99.90;;;;;;4959128;28;20020;-63
2022/12/19 00:13:35;;;;;;;44.40;18.13;;;-0.20;99.90;;;;;;4959909;28;20027;-63
2022/12/19 00:16:15;;;;;;;46.10;17.30;;;-0.20;99.90;;;;;;4945452;28;20053;-63
2022/12/19 00:18:43;;;;;;;50.78;19.42;;;-0.20;99.90;;;;;;4957075;28;20094;-63
2022/12/19 00:21:11;;;;;;;45.70;16.60;;;-0.20;99.90;;;;;;4956410;28;20058;-62
2022/12/19 00:23:36;;;;;;;44.80;16.55;;;-0.10;99.90;;;;;;4956564;28;20019;-62
2022/12/19 00:26:15;;;;;;;40.65;17.92;;;-0.10;99.90;;;;;;4953139;28;20122;-62
2022/12/19 00:28:43;;;;;;;40.03;16.05;;;0.00;99.90;;;;;;4953783;28;20031;-62
2022/12/19 00:31:09;;;;;;;46.30;18.33;;;0.00;99.90;;;;;;4950596;28;20596;-61
2022/12/19 00:33:35;;;;;;;46.03;17.87;;;0.00;99.90;;;;;;4952277;28;20123;-63
2022/12/19 00:36:03;;;;;;;50.17;18.73;;;0.00;99.90;;;;;;4951642;28;20031;-63
2022/12/19 00:38:29;;;;;;;44.38;17.90;;;0.10;99.90;;;;;;4958190;28;20043;-62
2022/12/19 00:41:04;;;;;;;43.95;17.20;;;0.10;99.90;;;;;;4959645;28;20026;-62
2022/12/19 00:43:30;;;;;;;52.60;20.80;;;0.10;99.90;;;;;;4961099;28;20110;-62
2022/12/19 00:45:55;;;;;;;41.78;16.98;;;0.10;99.90;;;;;;4962249;28;20545;-62
2022/12/19 00:48:21;;;;;;;43.85;16.58;;;0.20;99.90;;;;;;4949069;28;20148;-63
2022/12/19 00:50:46;;;;;;;43.92;17.67;;;0.20;99.90;;;;;;4965911;28;20054;-62
2022/12/19 00:53:12;;;;;;;51.92;18.40;;;0.20;99.90;;;;;;4965766;28;20041;-62
2022/12/19 00:55:38;;;;;;;43.03;16.08;;;0.30;99.90;;;;;;4965705;28;20106;-62
2022/12/19 00:58:03;;;;;;;42.80;18.75;;;0.30;99.90;;;;;;4963246;28;20023;-63
2022/12/19 01:00:29;;;;;;;43.30;16.67;;;0.30;99.90;;;;;;4943367;28;20047;-63
2022/12/19 01:02:54;;;;;;;44.00;17.23;;;0.30;99.90;;;;;;4955274;28;20043;-63
2022/12/19 01:05:20;;;;;;;42.05;15.57;;;0.40;99.90;;;;;;4958550;28;20039;-62
2022/12/19 01:07:45;;;;;;;43.28;16.73;;;0.40;99.90;;;;;;4956475;28;20034;-63
2022/12/19 01:10:11;;;;;;;53.60;19.40;;;0.40;99.90;;;;;;4970743;28;20031;-63
2022/12/19 01:12:45;;;;;;;51.60;18.65;;;0.40;99.90;;;;;;4965768;28;20019;-63
2022/12/19 01:15:16;;;;;;;45.40;18.10;;;0.40;99.90;;;;;;4959423;28;20059;-62
2022/12/19 01:17:42;;;;;;;48.60;17.00;;;0.40;99.90;;;;;;4954927;28;20031;-62
2022/12/19 01:20:09;;;;;;;46.55;18.23;;;0.40;99.90;;;;;;4964990;28;20034;-62
2022/12/19 01:22:34;;;;;;;45.60;18.02;;;0.50;99.90;;;;;;4971815;28;20031;-63
2022/12/19 01:25:00;;;;;;;46.58;17.77;;;0.50;99.90;;;;;;4961255;28;20037;-63
2022/12/19 01:27:25;;;;;;;46.67;16.40;;;0.50;99.90;;;;;;4968206;28;20026;-62
2022/12/19 01:29:51;;;;;;;45.88;18.15;;;0.50;99.90;;;;;;4952613;28;20038;-62
2022/12/19 01:32:16;;;;;;;42.70;17.67;;;0.50;99.90;;;;;;4969231;28;20460;-63
2022/12/19 01:34:42;;;;;;;43.15;17.83;;;0.60;99.90;;;;;;4971718;28;20177;-62
2022/12/19 01:37:07;;;;;;;50.42;19.90;;;0.60;99.90;;;;;;4971053;28;20023;-63
2022/12/19 01:39:33;;;;;;;45.60;18.50;;;0.60;99.90;;;;;;4964242;28;20110;-62
2022/12/19 01:41:58;;;;;;;53.42;17.55;;;0.60;99.90;;;;;;4965200;28;20039;-61
2022/12/19 01:44:25;;;;;;;46.47;18.60;;;0.50;99.90;;;;;;4959688;28;20139;-63
2022/12/19 01:46:56;;;;;;;44.95;18.83;;;0.60;99.90;;;;;;4961083;28;20559;-62
2022/12/19 01:49:34;;;;;;;52.88;18.00;;;0.60;99.90;;;;;;4957069;28;20121;-63
2022/12/19 01:52:03;;;;;;;44.67;18.10;;;0.60;99.90;;;;;;4953199;28;20034;-63
2022/12/19 01:54:34;;;;;;;45.25;17.75;;;0.60;99.90;;;;;;4970301;28;20030;-63
2022/12/19 01:57:01;;;;;;;46.65;19.23;;;0.60;99.90;;;;;;4970457;28;20039;-62
2022/12/19 01:59:40;;;;;;;41.70;17.40;;;0.60;99.90;;;;;;4973345;28;20019;-63
2022/12/19 02:02:37;;;;;;;40.63;18.13;;;0.70;99.90;;;;;;4970974;28;20019;-63
2022/12/19 02:05:04;;;;;;;46.85;18.45;;;0.70;99.90;;;;;;4957126;28;20034;-61
2022/12/19 02:07:31;;;;;;;42.58;17.83;;;0.70;99.90;;;;;;4970292;28;20019;-63
2022/12/19 02:09:57;;;;;;;42.40;17.10;;;0.70;99.90;;;;;;4961606;28;20097;-63
2022/12/19 02:12:28;;;;;;;46.58;17.48;;;0.80;99.90;;;;;;4962916;28;20038;-63
2022/12/19 02:14:56;;;;;;;49.47;18.42;;;0.70;99.90;;;;;;4964879;28;20023;-62
2022/12/19 02:17:24;;;;;;;42.03;18.05;;;0.70;99.90;;;;;;4966663;28;20042;-62
2022/12/19 02:20:07;;;;;;;45.22;17.33;;;0.80;99.90;;;;;;4969063;28;20035;-63
2022/12/19 02:22:41;;;;;;;43.38;17.65;;;0.80;99.90;;;;;;4963487;28;20063;-62
2022/12/19 02:25:25;;;;;;;39.50;17.65;;;0.80;99.90;;;;;;4973372;28;20094;-63
2022/12/19 02:28:04;;;;;;;44.47;18.90;;;0.80;99.90;;;;;;4965397;28;20117;-63
2022/12/19 02:30:44;;;;;;;41.60;17.25;;;0.80;99.90;;;;;;4946997;28;20093;-63
2022/12/19 02:33:19;;;;;;;48.80;17.80;;;0.80;99.90;;;;;;4964353;28;20066;-62
2022/12/19 02:35:54;;;;;;;49.22;17.80;;;0.90;99.90;;;;;;4967152;28;20030;-62
2022/12/19 02:38:42;;;;;;;44.00;16.50;;;0.90;99.90;;;;;;4964635;28;20040;-62
2022/12/19 02:41:16;;;;;;;44.03;17.42;;;1.00;99.90;;;;;;4961958;28;20448;-63
2022/12/19 02:43:47;;;;;;;51.25;18.00;;;1.00;99.90;;;;;;4952170;28;20058;-63
2022/12/19 02:46:15;;;;;;;39.10;16.40;;;1.00;99.90;;;;;;4966829;28;20019;-61
2022/12/19 02:48:41;;;;;;;42.38;17.88;;;1.00;99.90;;;;;;4960573;28;20034;-63
2022/12/19 02:51:08;;;;;;;43.92;17.30;;;1.10;99.90;;;;;;4960573;28;20031;-63
2022/12/19 02:53:35;;;;;;;49.63;17.92;;;1.10;99.90;;;;;;4955955;28;20051;-62
2022/12/19 02:56:31;;;;;;;41.25;17.70;;;1.00;99.90;;;;;;4957506;28;20031;-64
2022/12/19 02:59:12;;;;;;;37.55;16.40;;;1.10;99.90;;;;;;4967260;28;20058;-62
2022/12/19 03:01:49;;;;;;;47.53;18.10;;;1.10;99.90;;;;;;4961796;28;20030;-63
2022/12/19 03:04:33;;;;;;;45.80;16.50;;;1.10;99.90;;;;;;4969722;28;20022;-63
2022/12/19 03:07:25;;;;;;;43.70;18.50;;;1.10;99.90;;;;;;4970252;28;20089;-63
2022/12/19 03:09:56;;;;;;;42.85;16.80;;;1.10;99.90;;;;;;4961325;28;20125;-62
2022/12/19 03:12:31;;;;;;;38.85;16.95;;;1.10;99.90;;;;;;4966251;28;20022;-62
2022/12/19 03:14:58;;;;;;;44.58;17.90;;;1.20;99.90;;;;;;4969223;28;20489;-63
2022/12/19 03:17:25;;;;;;;46.88;17.80;;;1.20;99.90;;;;;;4959424;28;20048;-62
2022/12/19 03:19:50;;;;;;;37.78;15.77;;;1.20;99.90;;;;;;4960405;28;20046;-62
2022/12/19 03:22:16;;;;;;;36.83;17.60;;;1.20;99.90;;;;;;4952912;28;20621;-62
2022/12/19 03:24:42;;;;;;;37.70;15.85;;;1.20;99.90;;;;;;4944126;28;20026;-63
2022/12/19 03:27:15;;;;;;;39.80;16.30;;;1.20;99.90;;;;;;4972174;28;20041;-63
2022/12/19 03:30:06;;;;;;;42.00;15.57;;;1.20;99.90;;;;;;4969132;28;20030;-63
2022/12/19 03:32:35;;;;;;;38.58;17.73;;;1.20;99.90;;;;;;4970749;28;20934;-62
2022/12/19 03:35:00;;;;;;;36.03;16.23;;;1.20;99.90;;;;;;4969495;28;20708;-63
2022/12/19 03:37:30;;;;;;;42.95;18.08;;;1.30;99.90;;;;;;4969057;28;20031;-63
2022/12/19 03:40:01;;;;;;;48.13;18.80;;;1.30;99.90;;;;;;4969734;28;20030;-63
2022/12/19 03:45:22;;;;;;;44.67;17.13;;;1.30;99.90;;;;;;4970151;28;20038;-62
2022/12/19 03:47:53;;;;;;;43.38;17.25;;;1.30;99.90;;;;;;4970465;28;20051;-62
2022/12/19 03:50:19;;;;;;;38.55;16.10;;;1.20;99.90;;;;;;4969309;28;20117;-63
2022/12/19 03:53:02;;;;;;;41.92;18.00;;;1.20;99.90;;;;;;4968226;28;20027;-63
2022/12/19 03:55:37;;;;;;;43.10;17.90;;;1.30;99.90;;;;;;4969521;28;20077;-63
2022/12/19 03:58:10;;;;;;;43.55;16.55;;;1.30;99.90;;;;;;4991089;23;20681;-67
2022/12/19 04:00:40;;;;;;;43.00;17.60;;;1.30;99.90;;;;;;4993954;28;20022;-67
2022/12/19 04:03:07;;;;;;;47.00;17.20;;;1.30;99.90;;;;;;4994845;28;20451;-67
2022/12/19 04:05:34;;;;;;;42.17;16.45;;;1.20;99.90;;;;;;4993210;28;20066;-66
2022/12/19 04:08:04;;;;;;;40.05;17.13;;;1.30;99.90;;;;;;4993002;28;20034;-67
2022/12/19 04:10:31;;;;;;;41.60;16.40;;;1.30;99.90;;;;;;4989043;28;20709;-66
2022/12/19 04:13:07;;;;;;;47.67;18.05;;;1.30;99.90;;;;;;4996119;28;20026;-65
2022/12/19 04:15:50;;;;;;;48.08;18.42;;;1.40;99.90;;;;;;4990247;28;20026;-66
2022/12/19 04:18:18;;;;;;;45.40;17.65;;;1.40;99.90;;;;;;4989251;28;20084;-65
2022/12/19 04:20:52;;;;;;;39.25;17.23;;;1.40;99.90;;;;;;4991457;28;20088;-67
2022/12/19 04:23:27;;;;;;;38.63;15.93;;;1.40;99.90;;;;;;4992483;28;20032;-66
2022/12/19 04:25:58;;;;;;;47.78;19.02;;;1.40;99.90;;;;;;4987466;28;20054;-68
2022/12/19 04:29:01;;;;;;;41.53;16.88;;;1.40;99.90;;;;;;4987603;28;20022;-65
2022/12/19 04:31:27;;;;;;;41.33;17.25;;;1.30;99.90;;;;;;4946871;28;20046;-64
2022/12/19 04:33:52;;;;;;;46.03;18.55;;;1.40;99.90;;;;;;4982164;28;20054;-67
2022/12/19 04:36:18;;;;;;;47.67;19.23;;;1.40;99.90;;;;;;4988985;28;20052;-67
2022/12/19 04:38:44;;;;;;;46.42;17.27;;;1.40;99.90;;;;;;4990702;28;20577;-66
2022/12/19 04:41:10;;;;;;;49.70;19.00;;;1.40;99.90;;;;;;4994655;28;20023;-67
2022/12/19 04:43:35;;;;;;;46.60;17.92;;;1.50;99.90;;;;;;4999243;28;20294;-67
2022/12/19 04:46:01;;;;;;;40.58;17.83;;;1.50;99.90;;;;;;4995601;28;20026;-66
2022/12/19 04:48:26;;;;;;;42.58;18.30;;;1.50;99.90;;;;;;4990553;28;20119;-65
2022/12/19 04:50:52;;;;;;;48.65;18.27;;;1.60;99.90;;;;;;5001860;28;20030;-64
2022/12/19 04:53:18;;;;;;;49.72;18.77;;;1.60;99.90;;;;;;4997118;28;20054;-67
2022/12/19 04:55:43;;;;;;;44.58;17.60;;;1.60;99.90;;;;;;5000154;28;20023;-66
2022/12/19 04:58:09;;;;;;;39.90;17.13;;;1.50;99.90;;;;;;4996358;28;20030;-66
2022/12/19 05:00:34;;;;;;;43.83;17.70;;;1.50;99.90;;;;;;4997467;28;20054;-66
2022/12/19 05:03:00;;;;;;;38.97;15.80;;;1.60;99.90;;;;;;4994007;28;20034;-66
2022/12/19 05:05:26;;;;;;;47.65;18.25;;;1.60;99.90;;;;;;4995781;28;20072;-65
2022/12/19 05:07:51;;;;;;;49.90;18.42;;;1.60;99.90;;;;;;4997570;28;20033;-66
2022/12/19 05:10:17;;;;;;;44.15;18.02;;;1.60;99.90;;;;;;4991061;28;20061;-65
2022/12/19 05:12:42;;;;;;;49.72;17.48;;;1.60;99.90;;;;;;4992383;28;20031;-65
2022/12/19 05:15:08;;;;;;;42.95;18.35;;;1.60;99.90;;;;;;4994687;28;20046;-66
2022/12/19 05:17:34;;;;;;;42.15;18.77;;;1.60;99.90;;;;;;4998541;28;20014;-66
2022/12/19 05:20:00;;;;;;;44.78;17.25;;;1.60;99.90;;;;;;4995854;28;20034;-67
2022/12/19 05:22:25;;;;;;;41.97;18.23;;;1.60;99.90;;;;;;4996283;28;20038;-62
2022/12/19 05:24:51;;;;;;;42.65;17.65;;;1.60;99.90;;;;;;4998062;28;20034;-67
2022/12/19 05:27:17;;;;;;;39.53;17.50;;;1.70;99.90;;;;;;4992437;28;20622;-66
2022/12/19 05:29:42;;;;;;;46.00;18.52;;;1.60;99.90;;;;;;5001770;28;20076;-67
2022/12/19 05:32:08;;;;;;;43.92;18.02;;;1.60;99.90;;;;;;4997687;28;20053;-66
2022/12/19 05:34:33;;;;;;;48.58;19.05;;;1.60;99.90;;;;;;4996577;28;20129;-65
2022/12/19 05:37:01;;;;;;;56.28;19.40;;;1.60;99.90;;;;;;4998535;28;20030;-66
2022/12/19 05:39:27;;;;;;;44.20;17.42;;;1.60;99.90;;;;;;4996181;28;20084;-66
2022/12/19 05:41:53;;;;;;;47.00;18.52;;;1.60;99.90;;;;;;4998439;28;20061;-66
2022/12/19 05:44:19;;;;;;;45.28;18.30;;;1.70;99.90;;;;;;4993614;28;20065;-66
2022/12/19 05:46:44;;;;;;;48.28;19.33;;;1.70;99.90;;;;;;4997834;28;20394;-66
2022/12/19 05:49:10;;;;;;;36.83;17.60;;;1.70;99.90;;;;;;4995051;28;20031;-67
2022/12/19 05:51:36;;;;;;;46.42;18.02;;;1.80;99.90;;;;;;4998363;28;20217;-67
2022/12/19 05:54:02;;;;;;;40.65;17.33;;;1.80;99.90;;;;;;4996417;28;20092;-66
2022/12/19 05:56:28;;;;;;;44.17;18.48;;;1.80;99.90;;;;;;4997303;28;20026;-67
2022/12/19 05:58:53;;;;;;;48.25;18.58;;;1.80;99.90;;;;;;4995701;28;20030;-65
2022/12/19 06:01:22;;;;;;;49.30;18.98;;;1.80;99.90;;;;;;4992690;28;20105;-67
2022/12/19 06:03:48;;;;;;;50.90;18.55;;;1.90;99.90;;;;;;5000690;28;20030;-68
2022/12/19 06:06:19;;;;;;;40.30;17.98;;;1.90;99.90;;;;;;4993515;28;20025;-67
2022/12/19 06:08:45;;;;;;;44.58;18.48;;;1.90;99.90;;;;;;4987156;28;20100;-64
2022/12/19 06:11:12;;;;;;;50.28;18.65;;;1.90;99.90;;;;;;4996814;28;20026;-65
2022/12/19 06:13:38;;;;;;;35.47;16.67;;;1.90;99.90;;;;;;4990030;28;20121;-67
2022/12/19 06:16:11;;;;;;;42.42;18.27;;;2.00;99.90;;;;;;4993903;28;20148;-66
2022/12/19 06:18:38;;;;;;;52.80;18.97;;;2.00;99.90;;;;;;4989696;28;20428;-66
2022/12/19 06:21:06;;;;;;;49.78;18.92;;;2.00;99.90;;;;;;4995570;28;20373;-66
2022/12/19 06:23:34;;;;;;;42.33;16.60;;;2.00;99.90;;;;;;5001604;28;20488;-66
2022/12/19 06:26:02;;;;;;;43.33;18.45;;;2.00;99.90;;;;;;4994292;28;20038;-66
2022/12/19 06:28:29;;;;;;;48.88;18.23;;;2.00;99.90;;;;;;4990105;28;20045;-65
2022/12/19 06:30:55;;;;;;;46.13;18.45;;;2.10;99.90;;;;;;4990261;28;20456;-65
2022/12/19 06:33:21;;;;;;;46.88;17.52;;;2.10;99.90;;;;;;4989815;28;20150;-66
2022/12/19 06:35:46;;;;;;;49.58;19.30;;;2.10;99.90;;;;;;4990428;28;20134;-64
2022/12/19 06:38:12;;;;;;;45.17;17.67;;;2.10;99.90;;;;;;4989891;28;20025;-65
2022/12/19 06:43:26;;;;;;;45.92;18.80;;;2.20;99.90;;;;;;4990667;28;20068;-66
2022/12/19 06:45:52;;;;;;;43.30;18.13;;;2.20;99.90;;;;;;4991165;28;20035;-66
2022/12/19 06:48:18;;;;;;;42.40;18.63;;;2.20;99.90;;;;;;4990584;28;20058;-67
2022/12/19 06:50:43;;;;;;;35.35;15.60;;;2.30;99.90;;;;;;4989598;28;20562;-67
2022/12/19 06:53:09;;;;;;;41.92;16.70;;;2.30;99.90;;;;;;4989235;28;20550;-66
2022/12/19 06:55:36;;;;;;;46.08;17.85;;;2.30;99.90;;;;;;4989296;28;20054;-67
2022/12/19 06:58:02;;;;;;;40.60;17.92;;;2.30;99.90;;;;;;4989015;28;20037;-67
2022/12/19 07:00:28;;;;;;;40.70;16.38;;;2.30;99.90;;;;;;4987643;28;20504;-66
2022/12/19 07:02:56;;;;;;;49.85;17.23;;;2.30;99.90;;;;;;4990019;28;20050;-65
2022/12/19 07:05:23;;;;;;;40.28;18.30;;;2.40;99.90;;;;;;4990020;28;20097;-66
2022/12/19 07:07:49;;;;;;;36.67;16.15;;;2.30;99.90;;;;;;4993138;28;20552;-66
2022/12/19 07:10:14;;;;;;;47.15;18.45;;;2.40;99.90;;;;;;4992121;28;20038;-66
2022/12/19 07:12:40;;;;;;;45.80;17.15;;;2.40;99.90;;;;;;4989247;28;20033;-66
2022/12/19 07:15:06;;;;;;;34.80;18.30;;;2.40;99.90;;;;;;4988547;28;20022;-65
2022/12/19 07:17:35;;;;;;;42.17;17.88;;;2.40;99.90;;;;;;4988034;28;20484;-66
2022/12/19 07:20:02;;;;;;;35.65;17.20;;;2.40;99.90;;;;;;4987295;28;20492;-67
2022/12/19 07:22:32;;;;;;;38.67;17.00;;;2.50;99.90;;;;;;4988669;28;20076;-66
2022/12/19 07:24:58;;;;;;;41.08;19.23;;;2.50;99.90;;;;;;4988861;28;20027;-65
2022/12/19 07:27:24;;;;;;;40.83;17.25;;;2.40;99.90;;;;;;4988492;28;20373;-66
2022/12/19 07:29:49;;;;;;;41.70;17.48;;;2.40;99.90;;;;;;4989707;28;20034;-67
2022/12/19 07:32:15;;;;;;;43.45;17.63;;;2.40;99.90;;;;;;4991977;28;20022;-66
2022/12/19 07:34:40;;;;;;;42.13;17.42;;;2.50;99.90;;;;;;4997981;28;20046;-66
2022/12/19 07:37:06;;;;;;;36.60;16.77;;;2.50;99.90;;;;;;5003600;28;20087;-65
2022/12/19 07:39:32;;;;;;;43.47;16.98;;;2.50;99.90;;;;;;4999788;28;20779;-66
2022/12/19 07:41:58;;;;;;;43.63;16.85;;;2.50;99.90;;;;;;4996553;28;20377;-66
2022/12/19 07:44:23;;;;;;;44.00;18.25;;;2.50;99.90;;;;;;4988917;28;20034;-64
2022/12/19 07:46:49;;;;;;;40.80;18.00;;;2.60;99.90;;;;;;4984335;28;20118;-66
2022/12/19 07:49:14;;;;;;;38.97;17.58;;;2.50;99.90;;;;;;4987518;28;20563;-66
2022/12/19 07:51:40;;;;;;;41.90;18.55;;;2.50;99.90;;;;;;4984788;28;20569;-66
2022/12/19 07:54:05;;;;;;;43.03;18.48;;;2.60;99.90;;;;;;4986564;28;20073;-66
2022/12/19 07:56:31;;;;;;;43.70;18.10;;;2.60;99.90;;;;;;4986506;28;20033;-67
2022/12/19 07:58:57;;;;;;;40.92;16.42;;;2.60;99.90;;;;;;4982147;28;20065;-66
2022/12/19 08:01:22;;;;;;;39.95;18.38;;;2.70;99.90;;;;;;4965154;28;20074;-66
2022/12/19 08:03:48;;;;;;;35.97;18.20;;;2.70;99.90;;;;;;4991508;28;20392;-66
2022/12/19 08:06:14;;;;;;;43.65;18.02;;;2.80;99.90;;;;;;4988561;28;20038;-67
2022/12/19 08:08:40;;;;;;;44.90;17.70;;;2.80;99.90;;;;;;4987622;28;20026;-67
2022/12/19 08:11:16;;;;;;;38.42;17.23;;;2.80;99.90;;;;;;4993005;28;20030;-66
2022/12/19 08:13:42;;;;;;;39.85;17.17;;;2.90;99.90;;;;;;4984473;28;20027;-66
2022/12/19 08:16:08;;;;;;;43.38;17.48;;;2.90;99.90;;;;;;4988213;28;20018;-66
2022/12/19 08:18:33;;;;;;;41.63;17.70;;;2.80;99.90;;;;;;4985926;28;20042;-67
2022/12/19 08:20:59;;;;;;;39.88;15.40;;;3.00;99.90;;;;;;4984088;28;20400;-66
2022/12/19 08:23:25;;;;;;;40.47;17.75;;;3.00;99.90;;;;;;4989971;28;20037;-67
2022/12/19 08:26:09;;;;;;;40.83;16.35;;;3.00;99.90;;;;;;4987837;28;20076;-67
2022/12/19 08:28:35;;;;;;;38.30;16.83;;;3.00;99.90;;;;;;4985940;28;20038;-67
2022/12/19 08:31:10;;;;;;;40.13;17.77;;;3.10;99.90;;;;;;4988896;28;20080;-66
2022/12/19 08:33:36;;;;;;;35.28;15.35;;;3.10;99.90;;;;;;4987512;28;20033;-67
2022/12/19 08:36:06;;;;;;;41.88;17.58;;;3.10;99.90;;;;;;4988062;28;20030;-67
2022/12/19 08:38:32;;;;;;;42.17;16.63;;;3.10;99.90;;;;;;4989969;28;20037;-66
2022/12/19 08:40:58;;;;;;;36.42;16.00;;;3.10;99.90;;;;;;4984101;28;20027;-66
2022/12/19 08:43:25;;;;;;;37.83;17.50;;;3.20;99.90;;;;;;4977238;28;20163;-68
2022/12/19 08:45:50;;;;;;;35.30;16.25;;;3.20;99.90;;;;;;5014152;28;20041;-66
2022/12/19 08:48:16;;;;;;;40.42;17.60;;;3.20;99.90;;;;;;5009073;28;20030;-66
2022/12/19 08:50:53;;;;;;;34.83;14.70;;;3.20;99.90;;;;;;5007804;28;20061;-68
2022/12/19 08:53:20;;;;;;;36.25;16.42;;;3.20;99.90;;;;;;5007906;28;20049;-66
2022/12/19 08:55:46;;;;;;;38.78;16.83;;;3.20;99.90;;;;;;5006882;28;20084;-65
2022/12/19 08:58:12;;;;;;;40.97;17.27;;;3.30;99.90;;;;;;5005522;28;20041;-66
2022/12/19 09:00:37;;;;;;;34.70;16.10;;;3.30;99.90;;;;;;4996935;28;20556;-67
2022/12/19 09:03:03;;;;;;;39.15;17.35;;;3.40;99.90;;;;;;5005536;28;20030;-67
2022/12/19 09:05:29;;;;;;;53.08;16.65;;;3.40;99.90;;;;;;5008170;28;20030;-66
2022/12/19 09:07:54;;;;;;;38.70;16.85;;;3.40;99.90;;;;;;5008898;28;20030;-66
2022/12/19 09:10:20;;;;;;;36.50;16.90;;;3.40;99.90;;;;;;5009619;28;20116;-66
2022/12/19 09:12:46;;;;;;;45.03;17.55;;;3.40;99.90;;;;;;5013804;28;20494;-67
2022/12/19 09:15:11;;;;;;;36.95;17.40;;;3.50;99.90;;;;;;5011716;28;20049;-67
2022/12/19 09:17:37;;;;;;;41.63;17.17;;;3.50;99.90;;;;;;5010814;28;20108;-66
2022/12/19 09:20:03;;;;;;;37.55;16.30;;;3.50;99.90;;;;;;5004432;28;20079;-67
2022/12/19 09:22:29;;;;;;;40.75;17.05;;;3.50;99.90;;;;;;5008386;28;20087;-67
2022/12/19 09:24:54;;;;;;;39.92;16.08;;;3.60;99.90;;;;;;5009266;28;20117;-65
2022/12/19 09:27:20;;;;;;;40.28;16.35;;;3.60;99.90;;;;;;5015157;28;20030;-66
2022/12/19 09:29:45;;;;;;;41.10;18.17;;;3.60;99.90;;;;;;5011344;28;20631;-67
2022/12/19 09:32:11;;;;;;;44.05;17.52;;;3.60;99.90;;;;;;5012881;28;20032;-67
2022/12/19 09:34:37;;;;;;;34.88;15.70;;;3.60;99.90;;;;;;5019064;28;20037;-66
2022/12/19 09:37:03;;;;;;;37.53;16.45;;;3.60;99.90;;;;;;5016178;28;20077;-69
2022/12/19 09:39:29;;;;;;;40.65;17.20;;;3.60;99.90;;;;;;5008593;28;20037;-67
2022/12/19 09:42:14;;;;;;;37.20;18.17;;;3.60;99.90;;;;;;5012279;28;20476;-67
2022/12/19 09:44:42;;;;;;;38.28;16.30;;;3.60;99.90;;;;;;5025115;28;20037;-66
2022/12/19 09:47:15;;;;;;;41.08;15.77;;;3.60;99.90;;;;;;5008239;28;20487;-67
2022/12/19 09:49:43;;;;;;;38.85;17.52;;;3.60;99.90;;;;;;5006783;28;20044;-67
2022/12/19 09:52:27;;;;;;;42.95;17.02;;;3.60;99.90;;;;;;5011203;28;20423;-67
2022/12/19 09:54:57;;;;;;;37.97;14.90;;;3.60;99.90;;;;;;5011529;28;20038;-67
2022/12/19 09:57:29;;;;;;;35.70;15.82;;;3.70;99.90;;;;;;5011571;28;20307;-66
2022/12/19 10:00:10;;;;;;;40.63;18.17;;;3.70;99.90;;;;;;5009618;28;20026;-67
2022/12/19 10:02:46;;;;;;;31.33;15.13;;;3.70;99.90;;;;;;4999826;28;20045;-67
2022/12/19 10:05:43;;;;;;;34.88;15.45;;;3.70;99.90;;;;;;4991795;28;20041;-66
2022/12/19 10:08:32;;;;;;;32.20;14.85;;;3.70;99.90;;;;;;5004228;28;20096;-66
2022/12/19 10:11:09;;;;;;;35.17;15.05;;;3.70;99.90;;;;;;5018997;28;20410;-66
2022/12/19 10:13:48;;;;;;;33.60;15.52;;;3.80;99.90;;;;;;5008973;28;20101;-69
2022/12/19 10:16:17;;;;;;;38.28;16.95;;;3.70;99.90;;;;;;5018009;28;20029;-66
2022/12/19 10:19:00;;;;;;;36.05;15.75;;;3.70;99.90;;;;;;5013552;28;20025;-67
2022/12/19 10:21:37;;;;;;;35.47;15.93;;;3.80;99.90;;;;;;5010853;28;20479;-66
2022/12/19 10:24:28;;;;;;;34.92;15.35;;;3.90;99.90;;;;;;5011499;28;20053;-67
2022/12/19 10:27:00;;;;;;;31.60;15.38;;;3.90;99.90;;;;;;5009818;28;20088;-63
2022/12/19 10:29:44;;;;;;;35.90;14.88;;;3.90;99.90;;;;;;5015887;28;20037;-68
2022/12/19 10:32:35;;;;;;;34.72;15.07;;;3.90;99.90;;;;;;5016878;28;20030;-66
2022/12/19 10:35:10;;;;;;;32.50;13.35;;;3.90;99.90;;;;;;5022934;28;20045;-68
2022/12/19 10:38:00;;;;;;;33.40;15.57;;;4.00;99.90;;;;;;5009262;28;20077;-67
2022/12/19 10:40:43;;;;;;;34.47;16.02;;;3.90;99.90;;;;;;5007663;28;20403;-66
2022/12/19 10:43:15;;;;;;;35.00;15.20;;;3.90;99.90;;;;;;5014483;28;20022;-68
2022/12/19 10:45:46;;;;;;;33.50;14.52;;;4.00;99.90;;;;;;5009064;28;20076;-67
2022/12/19 10:48:17;;;;;;;34.50;15.57;;;4.00;99.90;;;;;;5016221;28;20108;-68
2022/12/19 10:50:42;;;;;;;35.28;16.13;;;4.00;99.90;;;;;;5014568;28;20030;-68
2022/12/19 10:53:10;;;;;;;38.70;15.07;;;4.10;99.90;;;;;;5010311;28;20056;-67
2022/12/19 10:55:52;;;;;;;28.70;13.30;;;4.20;99.90;;;;;;5014724;28;20022;-67
2022/12/19 10:58:34;;;;;;;36.38;14.75;;;4.30;99.90;;;;;;5007027;28;20076;-64
2022/12/19 11:01:24;;;;;;;29.27;13.77;;;4.40;99.90;;;;;;5011149;28;20426;-69
2022/12/19 11:04:17;;;;;;;33.75;14.65;;;4.50;99.90;;;;;;4987361;28;20066;-67
2022/12/19 11:06:43;;;;;;;31.67;13.75;;;4.50;99.90;;;;;;4987448;28;20030;-67
2022/12/19 11:09:30;;;;;;;31.48;15.52;;;4.60;99.90;;;;;;4989077;28;20038;-68
2022/12/19 11:12:06;;;;;;;33.92;14.27;;;4.80;99.90;;;;;;4993317;28;20030;-67
2022/12/19 11:14:34;;;;;;;39.88;14.63;;;4.80;99.90;;;;;;4993588;28;20029;-67
2022/12/19 11:17:00;;;;;;;30.08;13.90;;;4.90;99.90;;;;;;4987503;28;20033;-67
2022/12/19 11:19:30;;;;;;;29.17;13.48;;;4.80;99.90;;;;;;4992359;28;20014;-66
2022/12/19 11:22:14;;;;;;;30.10;14.23;;;4.80;99.90;;;;;;4991884;28;20029;-67
2022/12/19 11:24:45;;;;;;;24.65;13.23;;;4.90;99.90;;;;;;4991489;28;20034;-67
2022/12/19 11:27:47;;;;;;;25.38;13.57;;;4.90;99.90;;;;;;4991118;28;20061;-66
2022/12/19 11:30:25;;;;;;;26.08;13.25;;;4.90;99.90;;;;;;5005006;28;20168;-67
2022/12/19 11:33:15;;;;;;;28.92;13.88;;;5.00;99.90;;;;;;4995801;28;20117;-66
2022/12/19 11:35:49;;;;;;;26.65;12.85;;;5.00;99.90;;;;;;4977958;28;20030;-68
2022/12/19 11:38:20;;;;;;;29.98;14.57;;;5.00;99.90;;;;;;4988783;28;20081;-67
2022/12/19 11:40:51;;;;;;;28.20;13.55;;;4.90;99.90;;;;;;4990164;28;20408;-65
2022/12/19 11:43:28;;;;;;;29.10;13.18;;;4.90;99.90;;;;;;4994648;28;20053;-66
2022/12/19 11:46:05;;;;;;;27.38;12.88;;;4.90;99.90;;;;;;4995198;28;20038;-67
2022/12/19 11:48:47;;;;;;;26.15;12.95;;;4.80;99.90;;;;;;4992357;28;20141;-67
2022/12/19 11:51:31;;;;;;;27.80;12.75;;;4.80;99.90;;;;;;4993063;28;20562;-66
2022/12/19 11:54:16;;;;;;;29.75;13.57;;;4.80;99.90;;;;;;4985163;28;20053;-66
2022/12/19 11:56:42;;;;;;;28.73;11.95;;;4.80;99.90;;;;;;4995335;28;20026;-67
2022/12/19 11:59:23;;;;;;;30.90;13.23;;;4.80;99.90;;;;;;4992924;28;20086;-67
2022/12/19 12:02:22;;;;;;;32.20;12.57;;;4.80;99.90;;;;;;4969532;28;20030;-66
2022/12/19 12:05:00;;;;;;;32.22;14.80;;;4.90;99.90;;;;;;4991550;28;20046;-66
2022/12/19 12:07:35;;;;;;;28.58;12.43;;;4.90;99.90;;;;;;4989984;28;20022;-66
2022/12/19 12:10:19;;;;;;;26.67;12.60;;;5.00;99.90;;;;;;4987617;28;20054;-66
2022/12/19 12:13:13;;;;;;;26.98;13.70;;;5.00;99.90;;;;;;4994344;28;20022;-66
2022/12/19 12:16:01;;;;;;;35.95;12.75;;;5.00;99.90;;;;;;4984556;28;20018;-67
2022/12/19 12:18:45;;;;;;;30.63;13.63;;;5.00;99.90;;;;;;4990045;28;20030;-67
2022/12/19 12:21:28;;;;;;;28.27;12.27;;;5.00;99.90;;;;;;4987508;28;20031;-67
2022/12/19 12:24:11;;;;;;;23.73;11.60;;;5.10;99.90;;;;;;4986994;28;20034;-67
2022/12/19 12:27:00;;;;;;;22.02;11.75;;;5.10;99.90;;;;;;4990094;28;20085;-66
2022/12/19 12:29:40;;;;;;;32.65;11.93;;;5.10;99.90;;;;;;4987304;28;20077;-66
2022/12/19 12:32:05;;;;;;;28.20;12.80;;;5.10;99.90;;;;;;4988108;28;20536;-67
2022/12/19 12:34:52;;;;;;;33.20;12.88;;;5.10;99.90;;;;;;4989567;28;20022;-66
2022/12/19 12:37:50;;;;;;;30.50;12.80;;;5.10;99.90;;;;;;4989676;28;20583;-67
2022/12/19 12:40:25;;;;;;;28.58;13.30;;;5.10;99.90;;;;;;4984691;28;20038;-67
2022/12/19 12:43:03;;;;;;;27.95;13.10;;;5.00;99.90;;;;;;4989494;28;20034;-66
2022/12/19 12:45:37;;;;;;;26.45;11.80;;;5.10;99.90;;;;;;4983734;28;20037;-67
2022/12/19 12:48:25;;;;;;;25.52;11.98;;;5.10;99.90;;;;;;4994339;28;20475;-67
2022/12/19 12:50:52;;;;;;;28.60;13.02;;;5.10;99.90;;;;;;4983634;28;20130;-65
2022/12/19 12:53:21;;;;;;;24.77;11.90;;;5.10;99.90;;;;;;4991323;28;20092;-67
2022/12/19 12:55:48;;;;;;;26.55;11.98;;;5.20;99.90;;;;;;4986475;28;20061;-67
2022/12/19 12:58:45;;;;;;;23.55;12.63;;;5.20;99.90;;;;;;4988921;28;20038;-66
2022/12/19 13:01:27;;;;;;;23.67;12.73;;;5.20;99.90;;;;;;4989022;28;20027;-67